Time;durP1;ratioP1;P1;durP2;ratioP2;P2;SDS_P1;SDS_P2;PMS_P1;PMS_P2;Temp;Humidity;BMP_temperature;BMP_pressure;BME280_temperature;BME280_humidity;BME280_pressure;Samples;Min_cycle;Max_cycle;Signal;HPM_P1;HPM_P2
2022/06/16 00:00:15;;;;;;;;;;;18.90;43.20;;;;;;5018440;28;19918;-91
2022/06/16 00:02:42;;;;;;;;;;;18.90;43.10;;;;;;5019055;28;19957;-90
2022/06/16 00:05:12;;;;;;;;;;;18.90;42.90;;;;;;5002132;28;19965;-90
2022/06/16 00:07:39;;;;;;;;;;;18.80;42.70;;;;;;4980421;28;19925;-91
2022/06/16 00:10:05;;;;;;;;;;;18.80;43.00;;;;;;4997223;28;20361;-91
2022/06/16 00:12:31;;;;;;;;;;;18.70;43.10;;;;;;5005590;28;19918;-91
2022/06/16 00:15:00;;;;;;;;;;;18.70;43.60;;;;;;4999313;28;21193;-91
2022/06/16 00:17:25;;;;;;;;;;;18.70;43.70;;;;;;4996656;28;19925;-92
2022/06/16 00:19:51;;;;;;;;;;;18.70;43.70;;;;;;5000330;28;20365;-91
2022/06/16 00:22:16;;;;;;;;;;;18.70;43.80;;;;;;5000618;28;19918;-92
2022/06/16 00:25:02;;;;;;;;;;;18.70;43.60;;;;;;5001223;28;19909;-92
2022/06/16 00:27:28;;;;;;;;;;;18.70;43.40;;;;;;4998612;28;19918;-93
2022/06/16 00:29:53;;;;;;;;;;;18.70;43.80;;;;;;5003821;28;19921;-92
2022/06/16 00:32:20;;;;;;;;;;;18.70;43.90;;;;;;5009889;28;19920;-89
2022/06/16 00:34:46;;;;;;;;;;;18.70;43.80;;;;;;5008514;28;19952;-89
2022/06/16 00:37:11;;;;;;;;;;;18.70;43.60;;;;;;4993680;28;20010;-90
2022/06/16 00:39:37;;;;;;;;;;;18.70;43.50;;;;;;4988735;28;19934;-89
2022/06/16 00:42:06;;;;;;;;;;;18.70;43.60;;;;;;5009127;28;19914;-89
2022/06/16 00:47:27;;;;;;;;;;;18.80;43.70;;;;;;4998043;28;19929;-88
2022/06/16 00:49:56;;;;;;;;;;;18.80;43.90;;;;;;4997359;28;19918;-88
2022/06/16 00:52:24;;;;;;;;;;;18.90;43.70;;;;;;5013856;28;19929;-89
2022/06/16 00:55:11;;;;;;;;;;;18.90;43.40;;;;;;4997228;28;19924;-90
2022/06/16 00:57:38;;;;;;;;;;;19.00;43.20;;;;;;4996802;28;20378;-90
2022/06/16 01:00:08;;;;;;;;;;;18.90;43.20;;;;;;4996990;28;19953;-90
2022/06/16 01:02:33;;;;;;;;;;;18.80;43.00;;;;;;5003893;28;19920;-90
2022/06/16 01:04:59;;;;;;;;;;;18.80;42.90;;;;;;4996593;28;19988;-89
2022/06/16 01:07:33;;;;;;;;;;;18.70;43.00;;;;;;4995947;28;19918;-90
2022/06/16 01:09:59;;;;;;;;;;;18.70;43.10;;;;;;4996819;28;19964;-89
2022/06/16 01:15:37;;;;;;;;;;;18.40;42.90;;;;;;4999431;28;19921;-91
2022/06/16 01:18:05;;;;;;;;;;;18.30;42.90;;;;;;5001978;28;19922;-92
2022/06/16 01:20:31;;;;;;;;;;;18.20;43.10;;;;;;4999396;28;19981;-92
2022/06/16 01:23:06;;;;;;;;;;;18.10;43.70;;;;;;4999067;28;19914;-92
2022/06/16 01:25:49;;;;;;;;;;;18.10;44.10;;;;;;4999295;28;19966;-93
2022/06/16 01:28:14;;;;;;;;;;;18.00;44.30;;;;;;4996095;28;19924;-93
2022/06/16 01:30:49;;;;;;;;;;;18.00;44.70;;;;;;5001124;28;19921;-93
2022/06/16 01:33:22;;;;;;;;;;;18.00;44.40;;;;;;4999768;28;20287;-91
2022/06/16 01:35:52;;;;;;;;;;;18.00;44.10;;;;;;4999581;28;19918;-94
2022/06/16 01:38:22;;;;;;;;;;;18.00;44.20;;;;;;4999299;28;20350;-93
2022/06/16 01:40:51;;;;;;;;;;;18.00;44.00;;;;;;4995408;28;20406;-93
2022/06/16 01:43:25;;;;;;;;;;;18.00;44.30;;;;;;4991038;28;19937;-93
2022/06/16 01:46:00;;;;;;;;;;;17.90;44.30;;;;;;5003763;28;19945;-93
2022/06/16 01:48:27;;;;;;;;;;;18.00;44.20;;;;;;5007164;28;19917;-93
2022/06/16 01:50:55;;;;;;;;;;;18.00;44.10;;;;;;4997425;28;19918;-92
2022/06/16 01:53:24;;;;;;;;;;;18.00;44.50;;;;;;4998505;28;19914;-93
2022/06/16 01:56:14;;;;;;;;;;;18.00;44.80;;;;;;4999416;28;20032;-92
2022/06/16 01:58:41;;;;;;;;;;;17.90;44.60;;;;;;4992454;28;20297;-92
2022/06/16 02:01:09;;;;;;;;;;;17.90;44.40;;;;;;4998653;28;19953;-92
2022/06/16 02:03:40;;;;;;;;;;;17.80;44.30;;;;;;4982419;28;19925;-96
2022/06/16 02:06:10;;;;;;;;;;;17.80;44.10;;;;;;4990054;28;19980;-93
2022/06/16 02:08:38;;;;;;;;;;;17.80;44.40;;;;;;5014030;28;19921;-94
2022/06/16 02:11:17;;;;;;;;;;;17.80;44.60;;;;;;4996233;28;19914;-93
2022/06/16 02:13:45;;;;;;;;;;;17.80;44.70;;;;;;4980603;28;19912;-93
2022/06/16 02:16:13;;;;;;;;;;;17.80;45.20;;;;;;5014822;28;19925;-91
2022/06/16 02:18:42;;;;;;;;;;;17.80;45.40;;;;;;5018076;28;19918;-93
2022/06/16 02:21:27;;;;;;;;;;;17.80;45.30;;;;;;5019372;28;20109;-94
2022/06/16 02:23:53;;;;;;;;;;;17.80;45.30;;;;;;5023171;28;19981;-95
2022/06/16 02:26:19;;;;;;;;;;;17.80;45.00;;;;;;4999682;28;20304;-96
2022/06/16 02:28:46;;;;;;;;;;;17.80;45.40;;;;;;5008883;28;19922;-94
2022/06/16 02:31:19;;;;;;;;;;;17.80;45.20;;;;;;5004749;28;19918;-95
2022/06/16 02:34:00;;;;;;;;;;;17.80;45.00;;;;;;4987343;28;20294;-95
2022/06/16 02:36:47;;;;;;;;;;;17.80;44.90;;;;;;5003963;28;19917;-92
2022/06/16 02:39:24;;;;;;;;;;;17.70;44.80;;;;;;5000685;28;20668;-93
2022/06/16 02:41:55;;;;;;;;;;;17.60;44.70;;;;;;5000391;28;19985;-92
2022/06/16 02:44:31;;;;;;;;;;;17.50;44.50;;;;;;5001511;28;20418;-92
2022/06/16 02:46:57;;;;;;;;;;;17.40;44.50;;;;;;5006069;28;19914;-94
2022/06/16 02:49:25;;;;;;;;;;;17.30;44.50;;;;;;5003764;28;20367;-96
2022/06/16 02:52:02;;;;;;;;;;;17.30;44.60;;;;;;5016845;28;19913;-94
2022/06/16 02:54:32;;;;;;;;;;;17.20;44.90;;;;;;5009142;28;20231;-94
2022/06/16 02:57:18;;;;;;;;;;;17.10;45.20;;;;;;5003069;28;19918;-95
2022/06/16 03:00:07;;;;;;;;;;;17.10;45.20;;;;;;5003894;28;19988;-95
2022/06/16 03:02:38;;;;;;;;;;;17.00;45.10;;;;;;5019060;28;19918;-94
2022/06/16 03:05:07;;;;;;;;;;;16.90;45.10;;;;;;5002696;28;19917;-95
2022/06/16 03:07:34;;;;;;;;;;;16.90;45.40;;;;;;5003215;28;19919;-94
2022/06/16 03:10:00;;;;;;;;;;;16.90;45.50;;;;;;5002997;28;19917;-95
2022/06/16 03:12:25;;;;;;;;;;;16.80;45.60;;;;;;5021333;28;19924;-95
2022/06/16 03:14:51;;;;;;;;;;;16.80;45.60;;;;;;5008458;28;20346;-94
2022/06/16 03:17:17;;;;;;;;;;;16.80;45.50;;;;;;5002021;28;19918;-94
2022/06/16 03:19:42;;;;;;;;;;;16.80;45.50;;;;;;5002002;28;19929;-93
2022/06/16 03:22:08;;;;;;;;;;;16.80;45.60;;;;;;5017520;28;19909;-94
2022/06/16 03:24:34;;;;;;;;;;;16.80;45.70;;;;;;5002961;28;19965;-94
2022/06/16 03:27:00;;;;;;;;;;;16.80;45.70;;;;;;5018919;28;19937;-93
2022/06/16 03:29:25;;;;;;;;;;;16.80;45.60;;;;;;5020393;28;20359;-93
2022/06/16 03:31:55;;;;;;;;;;;16.80;45.60;;;;;;5005627;28;19918;-92
2022/06/16 03:34:21;;;;;;;;;;;16.80;45.60;;;;;;4982388;28;20306;-92
2022/06/16 03:36:49;;;;;;;;;;;16.80;45.60;;;;;;4992909;28;19921;-92
2022/06/16 03:39:14;;;;;;;;;;;16.90;45.80;;;;;;4999852;28;19929;-92
2022/06/16 03:41:40;;;;;;;;;;;16.90;46.00;;;;;;5000161;28;19924;-92
2022/06/16 03:44:05;;;;;;;;;;;17.00;46.00;;;;;;5001995;28;19918;-92
2022/06/16 03:46:31;;;;;;;;;;;17.00;45.90;;;;;;5000718;28;19922;-92
2022/06/16 03:48:59;;;;;;;;;;;17.10;45.90;;;;;;5000951;28;19918;-93
2022/06/16 03:51:25;;;;;;;;;;;17.10;45.90;;;;;;5000497;28;19918;-93
2022/06/16 03:53:50;;;;;;;;;;;17.20;46.10;;;;;;4998542;28;19944;-92
2022/06/16 03:56:16;;;;;;;;;;;17.30;46.10;;;;;;5000895;28;20427;-93
2022/06/16 03:58:41;;;;;;;;;;;17.30;46.10;;;;;;5001940;28;20072;-93
2022/06/16 04:01:07;;;;;;;;;;;17.40;46.20;;;;;;5007890;28;20008;-93
2022/06/16 04:06:17;;;;;;;;;;;17.60;46.40;;;;;;4992359;28;19936;-93
2022/06/16 04:08:43;;;;;;;;;;;17.70;46.50;;;;;;5001593;28;19917;-93
2022/06/16 04:11:27;;;;;;;;;;;17.80;46.80;;;;;;5003035;28;19898;-93
2022/06/16 04:13:53;;;;;;;;;;;17.80;47.00;;;;;;5001157;28;19971;-91
2022/06/16 04:16:19;;;;;;;;;;;17.90;47.10;;;;;;4997721;28;19964;-91
2022/06/16 04:18:45;;;;;;;;;;;18.10;47.10;;;;;;4997691;28;19934;-91
2022/06/16 04:21:11;;;;;;;;;;;18.20;47.00;;;;;;4998303;28;19940;-92
2022/06/16 04:23:37;;;;;;;;;;;18.20;46.90;;;;;;4999486;28;20044;-92
2022/06/16 04:26:02;;;;;;;;;;;18.30;46.90;;;;;;5016415;28;19961;-93
2022/06/16 04:28:28;;;;;;;;;;;18.40;46.90;;;;;;4999161;28;19961;-93
2022/06/16 04:30:58;;;;;;;;;;;18.50;47.20;;;;;;5005373;28;19953;-93
2022/06/16 04:33:24;;;;;;;;;;;18.50;47.20;;;;;;5019951;28;19921;-93
2022/06/16 04:35:50;;;;;;;;;;;18.60;47.10;;;;;;4990438;28;19968;-92
2022/06/16 04:38:15;;;;;;;;;;;18.70;47.20;;;;;;4998793;28;19925;-91
2022/06/16 04:40:41;;;;;;;;;;;18.80;47.20;;;;;;4999202;28;19914;-92
2022/06/16 04:43:06;;;;;;;;;;;18.80;47.20;;;;;;5000462;28;19921;-91
2022/06/16 04:45:32;;;;;;;;;;;19.00;47.20;;;;;;5002600;28;19913;-91
2022/06/16 04:47:57;;;;;;;;;;;19.00;47.10;;;;;;5002733;28;20047;-91
2022/06/16 04:50:23;;;;;;;;;;;19.10;47.00;;;;;;4999169;28;19914;-91
2022/06/16 04:52:48;;;;;;;;;;;19.20;47.00;;;;;;5016906;28;20000;-91
2022/06/16 04:55:18;;;;;;;;;;;19.30;47.10;;;;;;5018194;28;19918;-95
2022/06/16 04:57:43;;;;;;;;;;;19.40;47.40;;;;;;5021300;28;19921;-94
2022/06/16 05:00:13;;;;;;;;;;;19.60;47.30;;;;;;5003611;28;19965;-93
2022/06/16 05:02:40;;;;;;;;;;;19.80;47.60;;;;;;5000787;28;19914;-95
2022/06/16 05:05:06;;;;;;;;;;;20.30;48.20;;;;;;5000379;28;19913;-96
2022/06/16 05:07:32;;;;;;;;;;;20.80;48.50;;;;;;5023298;28;19913;-96
2022/06/16 05:09:57;;;;;;;;;;;21.50;48.00;;;;;;5022097;28;20405;-96
2022/06/16 05:12:23;;;;;;;;;;;22.20;47.80;;;;;;5021887;28;19937;-95
2022/06/16 05:14:48;;;;;;;;;;;23.00;46.60;;;;;;5020758;28;19917;-96
2022/06/16 05:17:14;;;;;;;;;;;23.70;44.80;;;;;;5004100;28;20025;-94
2022/06/16 05:19:39;;;;;;;;;;;24.40;43.20;;;;;;5001411;28;19926;-95
2022/06/16 05:22:05;;;;;;;;;;;24.70;40.60;;;;;;5002362;28;19910;-95
2022/06/16 05:24:31;;;;;;;;;;;24.80;39.90;;;;;;5002042;28;20277;-96
2022/06/16 05:26:57;;;;;;;;;;;24.90;39.30;;;;;;5001667;28;19942;-95
2022/06/16 05:29:23;;;;;;;;;;;25.00;38.60;;;;;;5001000;28;19917;-96
2022/06/16 05:31:49;;;;;;;;;;;24.90;38.40;;;;;;5000761;28;20267;-96
2022/06/16 05:34:14;;;;;;;;;;;24.90;38.20;;;;;;5003896;28;19928;-95
2022/06/16 05:36:40;;;;;;;;;;;24.80;38.10;;;;;;5002995;28;19937;-96
2022/06/16 05:39:06;;;;;;;;;;;24.80;38.00;;;;;;5001608;28;19972;-96
2022/06/16 05:41:32;;;;;;;;;;;24.80;38.10;;;;;;5002099;28;19910;-96
2022/06/16 05:43:57;;;;;;;;;;;24.90;38.20;;;;;;5002018;28;19929;-96
2022/06/16 05:46:23;;;;;;;;;;;24.90;38.20;;;;;;4999167;28;19917;-96
2022/06/16 05:48:52;;;;;;;;;;;24.90;37.70;;;;;;4983027;28;20008;-95
2022/06/16 05:51:18;;;;;;;;;;;24.90;37.80;;;;;;4983086;28;19970;-95
2022/06/16 05:53:44;;;;;;;;;;;25.00;37.80;;;;;;5000911;28;19925;-95
2022/06/16 05:56:10;;;;;;;;;;;25.10;37.60;;;;;;4998471;28;19949;-95
2022/06/16 05:58:35;;;;;;;;;;;25.30;37.70;;;;;;4997787;28;20354;-93
2022/06/16 06:01:01;;;;;;;;;;;25.30;37.30;;;;;;4998798;28;20309;-95
2022/06/16 06:03:27;;;;;;;;;;;25.40;36.90;;;;;;4995501;28;20271;-95
2022/06/16 06:05:52;;;;;;;;;;;25.50;37.00;;;;;;4980092;28;19910;-95
2022/06/16 06:16:38;;;;;;;;;;;26.20;36.30;;;;;;5001429;28;19977;-94
2022/06/16 06:19:23;;;;;;;;;;;26.50;35.90;;;;;;5001191;28;19922;-93
2022/06/16 06:22:11;;;;;;;;;;;26.90;35.20;;;;;;5002130;28;19926;-93
2022/06/16 06:24:43;;;;;;;;;;;27.60;35.60;;;;;;4980960;28;19922;-90
2022/06/16 06:27:12;;;;;;;;;;;28.50;34.60;;;;;;4998018;28;19921;-93
2022/06/16 06:29:37;;;;;;;;;;;29.20;33.10;;;;;;5002197;28;19918;-94
2022/06/16 06:32:03;;;;;;;;;;;29.60;32.30;;;;;;4999792;28;19949;-93
2022/06/16 06:34:32;;;;;;;;;;;29.80;31.20;;;;;;4997599;28;19918;-93
2022/06/16 06:36:57;;;;;;;;;;;30.00;30.70;;;;;;4982710;28;19978;-95
2022/06/16 06:39:23;;;;;;;;;;;30.00;29.50;;;;;;4982280;28;20482;-90
2022/06/16 06:41:48;;;;;;;;;;;29.80;28.60;;;;;;4995057;28;19921;-95
2022/06/16 06:44:24;;;;;;;;;;;29.60;28.50;;;;;;5003329;28;20001;-94
2022/06/16 06:46:50;;;;;;;;;;;29.40;28.30;;;;;;5004760;28;19921;-94
2022/06/16 06:49:16;;;;;;;;;;;29.30;28.30;;;;;;5004131;28;19918;-94
2022/06/16 06:51:42;;;;;;;;;;;29.40;29.10;;;;;;5003413;28;19905;-93
2022/06/16 06:54:08;;;;;;;;;;;29.70;28.40;;;;;;5003231;28;19914;-91
2022/06/16 06:56:33;;;;;;;;;;;30.10;28.30;;;;;;5007252;28;19914;-91
2022/06/16 06:59:01;;;;;;;;;;;30.30;27.80;;;;;;5001937;28;20028;-91
2022/06/16 07:01:27;;;;;;;;;;;30.80;27.60;;;;;;5004783;28;19921;-93
2022/06/16 07:03:52;;;;;;;;;;;31.30;26.90;;;;;;5002344;28;19917;-93
2022/06/16 07:06:18;;;;;;;;;;;31.70;26.10;;;;;;5002391;28;19940;-92
2022/06/16 07:08:44;;;;;;;;;;;32.00;25.20;;;;;;5001439;28;19918;-91
2022/06/16 07:11:11;;;;;;;;;;;32.30;24.90;;;;;;5001561;28;20471;-93
2022/06/16 07:13:37;;;;;;;;;;;32.70;24.50;;;;;;5009229;28;20381;-92
2022/06/16 07:16:02;;;;;;;;;;;33.00;24.20;;;;;;5001934;28;19914;-92
2022/06/16 07:18:28;;;;;;;;;;;33.30;23.10;;;;;;5002375;28;19925;-93
2022/06/16 07:20:53;;;;;;;;;;;33.40;22.90;;;;;;5001334;28;20275;-93
2022/06/16 07:23:19;;;;;;;;;;;33.60;22.60;;;;;;4998900;28;19926;-93
2022/06/16 07:25:49;;;;;;;;;;;33.70;21.90;;;;;;4981832;28;19949;-93
2022/06/16 07:28:15;;;;;;;;;;;33.80;21.80;;;;;;4981892;28;19957;-93
2022/06/16 07:30:41;;;;;;;;;;;33.90;21.80;;;;;;4990095;28;19928;-92
2022/06/16 07:33:07;;;;;;;;;;;34.00;21.90;;;;;;5020590;28;19914;-93
2022/06/16 07:35:33;;;;;;;;;;;34.30;22.10;;;;;;5015079;28;19925;-94
2022/06/16 07:37:59;;;;;;;;;;;34.60;22.00;;;;;;4995300;28;20016;-93
2022/06/16 07:40:25;;;;;;;;;;;34.90;21.50;;;;;;4997674;28;19969;-94
2022/06/16 07:42:54;;;;;;;;;;;35.10;21.70;;;;;;4999057;28;19926;-94
2022/06/16 07:45:20;;;;;;;;;;;35.40;21.50;;;;;;4997763;28;19922;-93
2022/06/16 07:47:46;;;;;;;;;;;35.80;20.90;;;;;;4981990;28;20009;-93
2022/06/16 07:50:12;;;;;;;;;;;36.20;20.50;;;;;;4982253;28;19941;-93
2022/06/16 07:52:38;;;;;;;;;;;36.40;20.10;;;;;;4982445;28;19921;-93
2022/06/16 07:55:04;;;;;;;;;;;36.50;19.40;;;;;;4981615;28;20001;-93
2022/06/16 07:57:32;;;;;;;;;;;36.70;19.70;;;;;;5019203;28;19984;-93
2022/06/16 07:59:58;;;;;;;;;;;37.00;19.80;;;;;;5026100;28;19961;-93
2022/06/16 08:02:24;;;;;;;;;;;37.30;19.40;;;;;;5003582;28;19965;-92
2022/06/16 08:04:51;;;;;;;;;;;37.70;19.10;;;;;;5018721;28;19960;-94
2022/06/16 08:07:17;;;;;;;;;;;37.80;18.20;;;;;;5021039;28;19919;-94
2022/06/16 08:09:44;;;;;;;;;;;37.80;17.70;;;;;;5019856;28;19996;-93
2022/06/16 08:12:10;;;;;;;;;;;37.80;17.60;;;;;;5019948;28;19956;-93
2022/06/16 08:14:45;;;;;;;;;;;37.80;18.00;;;;;;5021235;28;19914;-93
2022/06/16 08:17:12;;;;;;;;;;;37.90;17.70;;;;;;5002449;28;20259;-94
2022/06/16 08:19:39;;;;;;;;;;;37.90;17.60;;;;;;5001441;28;19929;-93
2022/06/16 08:22:05;;;;;;;;;;;37.90;17.80;;;;;;4999390;28;19921;-93
2022/06/16 09:12:24;;;;;;;;;;;39.50;17.60;;;;;;4963664;29;19969;-92
2022/06/16 09:15:20;;;;;;;;;;;39.70;16.60;;;;;;4959735;29;19929;-93
2022/06/16 09:18:09;;;;;;;;;;;39.50;15.70;;;;;;4963091;28;19966;-94
2022/06/16 09:20:41;;;;;;;;;;;39.30;16.00;;;;;;4964063;28;19914;-92
2022/06/16 09:29:04;;;;;;;;;;;39.40;15.70;;;;;;4978017;28;20370;-94
2022/06/16 09:36:15;;;;;;;;;;;39.40;15.60;;;;;;4902192;29;19915;-93
2022/06/16 09:38:39;;;;;;;;;;;39.20;15.60;;;;;;4874804;29;19928;-94
2022/06/16 09:44:18;;;;;;;;;;;39.20;15.60;;;;;;4899629;29;19948;-95
2022/06/16 09:46:55;;;;;;;;;;;39.20;15.80;;;;;;4954939;28;19978;-93
2022/06/16 09:52:55;;;;;;;;;;;39.50;16.20;;;;;;4942781;29;19922;-91
2022/06/16 09:55:38;;;;;;;;;;;39.60;15.30;;;;;;4924906;29;21587;-93
2022/06/16 09:58:22;;;;;;;;;;;39.40;15.00;;;;;;4937012;29;19923;-93
2022/06/16 10:01:14;;;;;;;;;;;39.30;15.30;;;;;;4942861;29;19945;-93
2022/06/16 10:03:51;;;;;;;;;;;39.60;15.50;;;;;;4940587;29;20013;-93
2022/06/16 10:06:39;;;;;;;;;;;39.80;15.60;;;;;;4966144;28;20008;-94
2022/06/16 10:09:32;;;;;;;;;;;40.20;15.30;;;;;;4961877;28;19921;-94
2022/06/16 10:12:12;;;;;;;;;;;40.40;14.80;;;;;;4961696;28;19918;-94
2022/06/16 10:15:16;;;;;;;;;;;40.60;14.80;;;;;;4962123;28;19957;-94
2022/06/16 10:17:51;;;;;;;;;;;40.60;14.30;;;;;;4903522;29;20018;-94
2022/06/16 10:20:28;;;;;;;;;;;40.60;14.20;;;;;;4904542;29;19926;-94
2022/06/16 10:23:11;;;;;;;;;;;40.70;14.10;;;;;;4961472;28;19925;-93
2022/06/16 10:25:49;;;;;;;;;;;40.80;14.20;;;;;;4979300;28;19925;-93
2022/06/16 10:28:44;;;;;;;;;;;40.80;14.30;;;;;;4967364;28;19914;-95
2022/06/16 10:31:20;;;;;;;;;;;41.00;14.60;;;;;;4881809;29;20014;-94
2022/06/16 10:33:54;;;;;;;;;;;41.40;14.20;;;;;;4959952;29;19924;-94
2022/06/16 10:36:22;;;;;;;;;;;41.50;13.70;;;;;;4952048;28;20005;-92
2022/06/16 10:39:09;;;;;;;;;;;41.40;13.70;;;;;;4962003;28;20013;-92
2022/06/16 10:41:50;;;;;;;;;;;41.20;13.40;;;;;;4961466;28;20258;-93
2022/06/16 10:44:20;;;;;;;;;;;41.20;13.80;;;;;;4961185;28;19989;-94
2022/06/16 10:53:04;;;;;;;;;;;41.50;14.20;;;;;;4946541;28;20239;-94
2022/06/16 10:55:36;;;;;;;;;;;41.80;14.40;;;;;;4990599;28;20409;-94
2022/06/16 10:58:05;;;;;;;;;;;42.20;14.40;;;;;;4975437;28;19961;-94
2022/06/16 11:00:32;;;;;;;;;;;42.70;14.40;;;;;;4991017;28;19922;-94
2022/06/16 11:03:06;;;;;;;;;;;42.90;13.80;;;;;;4974104;28;19921;-94
2022/06/16 11:05:34;;;;;;;;;;;43.00;13.10;;;;;;4969751;28;19914;-93
2022/06/16 11:08:08;;;;;;;;;;;43.00;13.00;;;;;;4989891;28;19914;-95
2022/06/16 11:10:35;;;;;;;;;;;43.00;13.10;;;;;;4985755;28;19921;-94
2022/06/16 11:13:01;;;;;;;;;;;42.90;12.90;;;;;;4982751;28;19914;-93
2022/06/16 11:15:38;;;;;;;;;;;42.80;13.30;;;;;;4982810;28;19945;-93
2022/06/16 11:18:07;;;;;;;;;;;42.80;13.40;;;;;;4981735;28;19922;-94
2022/06/16 11:20:35;;;;;;;;;;;42.80;13.40;;;;;;4999277;28;19945;-92
2022/06/16 11:23:16;;;;;;;;;;;42.70;13.30;;;;;;4967345;28;19905;-94
2022/06/16 11:25:41;;;;;;;;;;;42.50;13.30;;;;;;4961718;28;19910;-93
2022/06/16 11:28:10;;;;;;;;;;;42.30;13.30;;;;;;4962782;28;19915;-93
2022/06/16 11:30:39;;;;;;;;;;;42.30;13.60;;;;;;4960570;29;19978;-93
2022/06/16 11:33:06;;;;;;;;;;;42.10;13.90;;;;;;4958503;28;20241;-93
2022/06/16 11:35:41;;;;;;;;;;;41.90;14.10;;;;;;4963045;28;20358;-94
2022/06/16 11:38:14;;;;;;;;;;;42.10;14.30;;;;;;4943037;29;20359;-93
2022/06/16 11:40:44;;;;;;;;;;;42.40;14.30;;;;;;4958871;29;19925;-93
2022/06/16 11:43:10;;;;;;;;;;;42.60;14.10;;;;;;4959667;29;19911;-93
2022/06/16 11:45:38;;;;;;;;;;;42.60;13.80;;;;;;4947278;29;19941;-93
2022/06/16 11:48:08;;;;;;;;;;;42.40;13.20;;;;;;4961571;29;20423;-92
2022/06/16 11:50:34;;;;;;;;;;;42.10;13.40;;;;;;4979145;28;20414;-90
2022/06/16 11:53:08;;;;;;;;;;;41.80;13.20;;;;;;4984464;28;19910;-90
2022/06/16 11:55:52;;;;;;;;;;;41.20;13.70;;;;;;4990089;28;20426;-91
2022/06/16 11:58:23;;;;;;;;;;;40.70;14.00;;;;;;4963780;28;20402;-91
2022/06/16 12:01:01;;;;;;;;;;;39.70;14.80;;;;;;4965996;28;19925;-93
2022/06/16 12:03:42;;;;;;;;;;;39.50;15.20;;;;;;4981261;28;19918;-93
2022/06/16 12:06:39;;;;;;;;;;;39.50;15.40;;;;;;4981501;28;19969;-92
2022/06/16 12:09:26;;;;;;;;;;;39.80;15.40;;;;;;4981665;28;19923;-94
2022/06/16 12:12:15;;;;;;;;;;;39.80;15.50;;;;;;4967381;28;19918;-93
2022/06/16 12:15:19;;;;;;;;;;;40.00;15.40;;;;;;4956788;28;19966;-93
2022/06/16 12:17:49;;;;;;;;;;;40.00;15.60;;;;;;4921945;29;20377;-93
2022/06/16 12:20:20;;;;;;;;;;;40.40;15.40;;;;;;4906469;29;19996;-93
2022/06/16 12:22:46;;;;;;;;;;;40.70;15.30;;;;;;4943934;28;19922;-92
2022/06/16 12:25:23;;;;;;;;;;;40.70;15.10;;;;;;4962435;28;19914;-92
2022/06/16 12:27:52;;;;;;;;;;;40.80;15.20;;;;;;4963133;28;19918;-92
2022/06/16 12:30:20;;;;;;;;;;;41.30;15.10;;;;;;4962678;28;20282;-92
2022/06/16 12:33:04;;;;;;;;;;;41.60;14.60;;;;;;4980352;28;19933;-92
2022/06/16 12:35:29;;;;;;;;;;;41.70;14.60;;;;;;4978047;28;20001;-91
2022/06/16 12:38:16;;;;;;;;;;;41.20;14.80;;;;;;4977937;28;20021;-93
2022/06/16 12:41:08;;;;;;;;;;;40.40;14.70;;;;;;4959618;29;19914;-90
2022/06/16 12:43:36;;;;;;;;;;;39.60;15.70;;;;;;4958699;28;19926;-93
2022/06/16 12:46:03;;;;;;;;;;;39.30;15.90;;;;;;4975798;28;19920;-91
2022/06/16 12:48:38;;;;;;;;;;;39.30;16.00;;;;;;4982919;28;20020;-92
2022/06/16 12:51:06;;;;;;;;;;;38.80;16.20;;;;;;4976324;28;19920;-91
2022/06/16 12:53:51;;;;;;;;;;;38.80;16.50;;;;;;4983587;28;20061;-91
2022/06/16 12:56:27;;;;;;;;;;;39.20;16.60;;;;;;4966731;28;19914;-93
2022/06/16 12:59:04;;;;;;;;;;;39.20;16.20;;;;;;4980150;28;19926;-92
2022/06/16 13:01:29;;;;;;;;;;;39.20;16.40;;;;;;4981128;28;19929;-91
2022/06/16 13:04:00;;;;;;;;;;;39.20;16.30;;;;;;4982709;28;19918;-92
2022/06/16 13:06:26;;;;;;;;;;;39.40;16.40;;;;;;4964705;28;19918;-90
2022/06/16 13:08:55;;;;;;;;;;;39.80;16.50;;;;;;4966944;28;19933;-95
2022/06/16 13:11:25;;;;;;;;;;;39.90;15.90;;;;;;4973436;28;19921;-93
2022/06/16 13:13:59;;;;;;;;;;;40.00;15.90;;;;;;4966209;28;19918;-93
2022/06/16 13:16:28;;;;;;;;;;;40.00;15.80;;;;;;4965928;28;19993;-93
2022/06/16 13:18:58;;;;;;;;;;;40.00;15.90;;;;;;4979315;28;19974;-90
2022/06/16 13:21:47;;;;;;;;;;;40.00;15.90;;;;;;4965932;28;19921;-94
2022/06/16 13:24:45;;;;;;;;;;;40.00;16.10;;;;;;4966919;28;19936;-94
2022/06/16 13:27:22;;;;;;;;;;;39.40;16.40;;;;;;4988284;28;19974;-92
2022/06/16 13:29:50;;;;;;;;;;;39.00;16.70;;;;;;4966135;28;19918;-94
2022/06/16 13:32:34;;;;;;;;;;;;;;;;;;;;;
2022/06/16 13:35:12;;;;;;;;;;;38.40;16.90;;;;;;4982548;28;20013;-94
2022/06/16 13:37:47;;;;;;;;;;;38.40;17.20;;;;;;4982375;28;19918;-95
2022/06/16 13:40:22;;;;;;;;;;;38.30;17.10;;;;;;4981450;28;19942;-93
2022/06/16 13:42:54;;;;;;;;;;;38.40;17.10;;;;;;4983410;28;20008;-93
2022/06/16 13:45:33;;;;;;;;;;;38.50;17.10;;;;;;4982806;28;19976;-95
2022/06/16 13:48:08;;;;;;;;;;;38.80;16.80;;;;;;4981378;28;20252;-92
2022/06/16 13:50:56;;;;;;;;;;;38.90;16.50;;;;;;4986534;28;20002;-94
2022/06/16 13:53:34;;;;;;;;;;;37.90;16.90;;;;;;4969738;28;19966;-95
2022/06/16 13:56:07;;;;;;;;;;;37.70;17.00;;;;;;4967818;28;19918;-95
2022/06/16 13:58:37;;;;;;;;;;;37.80;16.80;;;;;;4978232;28;19927;-96
2022/06/16 14:01:06;;;;;;;;;;;37.80;16.80;;;;;;4958573;28;19922;-95
2022/06/16 14:03:31;;;;;;;;;;;37.70;16.80;;;;;;4968796;28;20262;-93
2022/06/16 14:06:06;;;;;;;;;;;37.60;16.90;;;;;;4964412;28;19996;-94
2022/06/16 14:08:32;;;;;;;;;;;37.50;17.00;;;;;;4978777;28;20314;-93
2022/06/16 14:11:21;;;;;;;;;;;36.90;17.30;;;;;;4963445;28;20343;-94
2022/06/16 14:14:05;;;;;;;;;;;36.10;17.90;;;;;;4938200;28;19926;-93
2022/06/16 14:16:35;;;;;;;;;;;36.20;17.90;;;;;;4961936;28;19915;-91
2022/06/16 14:19:01;;;;;;;;;;;36.40;17.80;;;;;;4962305;28;20286;-92
2022/06/16 14:21:30;;;;;;;;;;;36.40;17.90;;;;;;4980397;28;19914;-94
2022/06/16 14:24:01;;;;;;;;;;;36.40;18.00;;;;;;4964494;28;20350;-93
2022/06/16 14:26:27;;;;;;;;;;;36.10;18.10;;;;;;4955396;29;19915;-92
2022/06/16 14:28:56;;;;;;;;;;;35.90;18.30;;;;;;4949070;28;19966;-93
2022/06/16 14:31:48;;;;;;;;;;;35.70;18.50;;;;;;4963209;28;19914;-94
2022/06/16 14:34:17;;;;;;;;;;;35.50;18.70;;;;;;4941708;28;20397;-93
2022/06/16 14:36:49;;;;;;;;;;;35.50;18.70;;;;;;4961470;28;19970;-93
2022/06/16 14:39:47;;;;;;;;;;;35.10;19.00;;;;;;4980317;28;20396;-95
2022/06/16 14:42:18;;;;;;;;;;;34.30;19.70;;;;;;4957943;28;19918;-93
2022/06/16 14:44:59;;;;;;;;;;;33.80;20.30;;;;;;4964510;28;20433;-93
2022/06/16 14:47:29;;;;;;;;;;;33.60;20.70;;;;;;4990683;28;19925;-90
2022/06/16 14:49:57;;;;;;;;;;;33.40;21.00;;;;;;4980567;28;19921;-93
2022/06/16 14:52:27;;;;;;;;;;;33.30;21.20;;;;;;4968639;28;19922;-92
2022/06/16 14:54:54;;;;;;;;;;;33.20;21.60;;;;;;4970574;28;19977;-91
2022/06/16 14:57:22;;;;;;;;;;;32.90;22.00;;;;;;4965217;28;19922;-90
2022/06/16 14:59:52;;;;;;;;;;;32.60;22.10;;;;;;4967359;28;19978;-92
2022/06/16 15:02:19;;;;;;;;;;;32.20;22.50;;;;;;4969145;28;19990;-95
2022/06/16 15:04:44;;;;;;;;;;;32.00;22.80;;;;;;4970624;28;19921;-94
2022/06/16 15:07:13;;;;;;;;;;;31.80;22.90;;;;;;4964206;28;19918;-92
2022/06/16 15:09:40;;;;;;;;;;;31.70;23.20;;;;;;4984847;28;19914;-93
2022/06/16 15:12:06;;;;;;;;;;;31.50;23.40;;;;;;4966733;28;19918;-93
2022/06/16 15:14:37;;;;;;;;;;;31.20;23.30;;;;;;4984962;28;19989;-95
2022/06/16 15:19:51;;;;;;;;;;;30.80;23.60;;;;;;4985968;28;19994;-94
2022/06/16 15:22:22;;;;;;;;;;;30.60;23.80;;;;;;4969418;28;20023;-93
2022/06/16 15:24:52;;;;;;;;;;;30.50;24.00;;;;;;4967223;28;19918;-95
2022/06/16 15:27:54;;;;;;;;;;;30.50;24.20;;;;;;4966753;28;19921;-93
2022/06/16 15:30:30;;;;;;;;;;;30.50;24.30;;;;;;4906345;29;19934;-92
2022/06/16 15:36:09;;;;;;;;;;;30.60;24.20;;;;;;4973366;28;19944;-92
2022/06/16 15:38:38;;;;;;;;;;;30.60;24.10;;;;;;4982727;28;19980;-91
2022/06/16 15:41:17;;;;;;;;;;;30.60;24.40;;;;;;4965500;28;19918;-92
2022/06/16 15:43:43;;;;;;;;;;;30.60;24.50;;;;;;4965970;28;19918;-92
2022/06/16 15:46:11;;;;;;;;;;;30.60;24.50;;;;;;4983596;28;19929;-91
2022/06/16 15:48:40;;;;;;;;;;;30.60;24.40;;;;;;4966099;28;20013;-92
2022/06/16 15:51:11;;;;;;;;;;;30.70;24.30;;;;;;4967621;28;19914;-94
2022/06/16 15:53:38;;;;;;;;;;;30.70;24.10;;;;;;4968108;28;19914;-92
2022/06/16 15:56:05;;;;;;;;;;;30.70;24.10;;;;;;4967125;28;19922;-94
2022/06/16 15:58:31;;;;;;;;;;;30.70;24.00;;;;;;4970091;28;19922;-94
2022/06/16 16:00:57;;;;;;;;;;;30.70;24.00;;;;;;4971404;28;19978;-95
2022/06/16 16:03:27;;;;;;;;;;;30.70;24.10;;;;;;4972429;28;19918;-96
2022/06/16 16:06:01;;;;;;;;;;;30.70;24.10;;;;;;4974802;28;19902;-96
2022/06/16 16:08:33;;;;;;;;;;;30.70;24.20;;;;;;4973281;28;19914;-92
2022/06/16 16:11:37;;;;;;;;;;;30.70;24.20;;;;;;4966741;28;19965;-92
2022/06/16 16:14:06;;;;;;;;;;;30.60;24.30;;;;;;4909758;29;20014;-92